Owensburg, Indiana
Current Conditions -  °F | °C
As of 10:00 AM on Thursday 23 Oct 2014 (Local Time) from KBMG Reporting Station
Clear Clear  
Wind Chill: 41°   Ceiling: Unl
Heat Index: 44°   Visibility: 7mi
Dew Point: 43°   Wind: 6mph
Humidity: 96%   Direction: 160°SSE
Pressure: 30.26"   Gusts: NA
Location:  38.92°N, 86.73°W
Report Text: KBMG 231400Z 16005KT 7SM CLR 07/06 A3026 RMK AO2 T00670061
Loading
Personal Weather Stations






























Interactive Weather Map
Tropical Storm Tracking
New forecast layout! Learn more

10-Day Weather Forecast

Advertisements
Track Severe Weather on mobile